sensor_id;sensor_type;location;lat;lon;timestamp;P1;durP1;ratioP1;P2;durP2;ratioP2
22565;SDS011;11449;51.330;19.378;2023-05-14T00:02:28;43.10;;;24.80;;
22565;SDS011;11449;51.330;19.378;2023-05-14T00:07:36;46.20;;;27.10;;
22565;SDS011;11449;51.330;19.378;2023-05-14T00:12:43;48.60;;;26.50;;
22565;SDS011;11449;51.330;19.378;2023-05-14T00:17:52;45.20;;;27.10;;
22565;SDS011;11449;51.330;19.378;2023-05-14T00:22:59;44.20;;;26.00;;
22565;SDS011;11449;51.330;19.378;2023-05-14T00:28:07;49.30;;;25.60;;
22565;SDS011;11449;51.330;19.378;2023-05-14T00:33:15;43.00;;;25.20;;
22565;SDS011;11449;51.330;19.378;2023-05-14T00:38:22;46.40;;;25.60;;
22565;SDS011;11449;51.330;19.378;2023-05-14T00:43:34;38.90;;;22.70;;
22565;SDS011;11449;51.330;19.378;2023-05-14T00:48:42;38.80;;;22.40;;
22565;SDS011;11449;51.330;19.378;2023-05-14T00:53:51;37.90;;;22.90;;
22565;SDS011;11449;51.330;19.378;2023-05-14T00:59:00;39.40;;;23.10;;
22565;SDS011;11449;51.330;19.378;2023-05-14T01:04:08;42.40;;;24.00;;
22565;SDS011;11449;51.330;19.378;2023-05-14T01:14:39;36.70;;;21.50;;
22565;SDS011;11449;51.330;19.378;2023-05-14T01:19:56;36.60;;;20.80;;
22565;SDS011;11449;51.330;19.378;2023-05-14T01:25:05;40.10;;;23.00;;
22565;SDS011;11449;51.330;19.378;2023-05-14T01:30:18;34.80;;;21.50;;
22565;SDS011;11449;51.330;19.378;2023-05-14T01:35:28;35.30;;;21.70;;
22565;SDS011;11449;51.330;19.378;2023-05-14T01:40:36;28.30;;;18.40;;
22565;SDS011;11449;51.330;19.378;2023-05-14T01:45:44;37.30;;;22.10;;
22565;SDS011;11449;51.330;19.378;2023-05-14T01:50:53;37.80;;;21.80;;
22565;SDS011;11449;51.330;19.378;2023-05-14T01:56:01;33.30;;;20.30;;
22565;SDS011;11449;51.330;19.378;2023-05-14T02:01:08;36.30;;;21.30;;
22565;SDS011;11449;51.330;19.378;2023-05-14T02:06:16;37.40;;;23.00;;
22565;SDS011;11449;51.330;19.378;2023-05-14T02:11:24;42.20;;;23.90;;
22565;SDS011;11449;51.330;19.378;2023-05-14T02:16:32;47.10;;;24.20;;
22565;SDS011;11449;51.330;19.378;2023-05-14T02:21:40;42.60;;;23.30;;
22565;SDS011;11449;51.330;19.378;2023-05-14T02:26:48;43.30;;;22.20;;
22565;SDS011;11449;51.330;19.378;2023-05-14T02:31:55;41.50;;;21.90;;
22565;SDS011;11449;51.330;19.378;2023-05-14T02:37:03;41.70;;;23.10;;
22565;SDS011;11449;51.330;19.378;2023-05-14T02:42:11;52.90;;;27.60;;
22565;SDS011;11449;51.330;19.378;2023-05-14T02:47:19;41.40;;;23.30;;
22565;SDS011;11449;51.330;19.378;2023-05-14T02:52:27;48.00;;;25.60;;
22565;SDS011;11449;51.330;19.378;2023-05-14T02:57:35;44.30;;;23.40;;
22565;SDS011;11449;51.330;19.378;2023-05-14T03:02:42;44.80;;;24.00;;
22565;SDS011;11449;51.330;19.378;2023-05-14T03:07:51;45.20;;;24.80;;
22565;SDS011;11449;51.330;19.378;2023-05-14T03:13:00;38.10;;;22.40;;
22565;SDS011;11449;51.330;19.378;2023-05-14T03:18:08;35.80;;;21.60;;
22565;SDS011;11449;51.330;19.378;2023-05-14T03:23:15;41.40;;;24.50;;
22565;SDS011;11449;51.330;19.378;2023-05-14T03:28:23;55.80;;;26.70;;
22565;SDS011;11449;51.330;19.378;2023-05-14T03:33:31;54.00;;;28.90;;
22565;SDS011;11449;51.330;19.378;2023-05-14T03:38:39;50.30;;;27.90;;
22565;SDS011;11449;51.330;19.378;2023-05-14T03:43:47;57.30;;;27.40;;
22565;SDS011;11449;51.330;19.378;2023-05-14T03:48:56;50.50;;;28.70;;
22565;SDS011;11449;51.330;19.378;2023-05-14T03:54:03;48.20;;;28.80;;
22565;SDS011;11449;51.330;19.378;2023-05-14T03:59:12;53.10;;;28.90;;
22565;SDS011;11449;51.330;19.378;2023-05-14T04:04:20;56.30;;;31.30;;
22565;SDS011;11449;51.330;19.378;2023-05-14T04:09:27;49.70;;;28.90;;
22565;SDS011;11449;51.330;19.378;2023-05-14T04:14:35;49.80;;;29.00;;
22565;SDS011;11449;51.330;19.378;2023-05-14T04:19:43;52.60;;;30.10;;
22565;SDS011;11449;51.330;19.378;2023-05-14T04:24:51;45.70;;;28.40;;
22565;SDS011;11449;51.330;19.378;2023-05-14T04:29:59;43.10;;;29.10;;
22565;SDS011;11449;51.330;19.378;2023-05-14T04:35:07;55.50;;;28.90;;
22565;SDS011;11449;51.330;19.378;2023-05-14T04:40:16;72.70;;;37.90;;
22565;SDS011;11449;51.330;19.378;2023-05-14T04:45:24;76.50;;;39.30;;
22565;SDS011;11449;51.330;19.378;2023-05-14T04:50:33;59.30;;;30.20;;
22565;SDS011;11449;51.330;19.378;2023-05-14T04:55:41;49.90;;;26.60;;
22565;SDS011;11449;51.330;19.378;2023-05-14T05:00:49;44.30;;;25.30;;
22565;SDS011;11449;51.330;19.378;2023-05-14T05:05:57;40.60;;;23.60;;
22565;SDS011;11449;51.330;19.378;2023-05-14T05:11:04;38.90;;;24.90;;
22565;SDS011;11449;51.330;19.378;2023-05-14T05:16:12;36.90;;;23.10;;
22565;SDS011;11449;51.330;19.378;2023-05-14T05:21:20;34.10;;;22.60;;
22565;SDS011;11449;51.330;19.378;2023-05-14T05:26:28;35.00;;;20.70;;
22565;SDS011;11449;51.330;19.378;2023-05-14T05:31:35;17.00;;;10.40;;
22565;SDS011;11449;51.330;19.378;2023-05-14T05:36:43;17.60;;;10.60;;
22565;SDS011;11449;51.330;19.378;2023-05-14T05:41:52;23.40;;;12.60;;
22565;SDS011;11449;51.330;19.378;2023-05-14T05:47:00;17.10;;;10.10;;
22565;SDS011;11449;51.330;19.378;2023-05-14T05:52:08;23.50;;;9.90;;
22565;SDS011;11449;51.330;19.378;2023-05-14T05:57:16;32.20;;;10.40;;
22565;SDS011;11449;51.330;19.378;2023-05-14T06:02:24;35.50;;;9.10;;
22565;SDS011;11449;51.330;19.378;2023-05-14T06:07:32;14.00;;;8.60;;
22565;SDS011;11449;51.330;19.378;2023-05-14T06:12:40;40.60;;;10.00;;
22565;SDS011;11449;51.330;19.378;2023-05-14T06:17:48;16.80;;;8.30;;
22565;SDS011;11449;51.330;19.378;2023-05-14T06:22:55;18.00;;;8.50;;
22565;SDS011;11449;51.330;19.378;2023-05-14T06:28:03;18.80;;;8.70;;
22565;SDS011;11449;51.330;19.378;2023-05-14T06:33:11;17.90;;;8.90;;
22565;SDS011;11449;51.330;19.378;2023-05-14T06:38:19;19.40;;;7.90;;
22565;SDS011;11449;51.330;19.378;2023-05-14T06:43:27;20.20;;;7.30;;
22565;SDS011;11449;51.330;19.378;2023-05-14T06:48:35;18.20;;;7.20;;
22565;SDS011;11449;51.330;19.378;2023-05-14T06:53:43;21.80;;;8.50;;
22565;SDS011;11449;51.330;19.378;2023-05-14T06:58:51;18.40;;;7.20;;
22565;SDS011;11449;51.330;19.378;2023-05-14T07:03:58;40.50;;;7.80;;
22565;SDS011;11449;51.330;19.378;2023-05-14T07:09:06;27.60;;;6.60;;
22565;SDS011;11449;51.330;19.378;2023-05-14T07:14:14;29.20;;;6.10;;
22565;SDS011;11449;51.330;19.378;2023-05-14T07:19:22;23.30;;;6.60;;
22565;SDS011;11449;51.330;19.378;2023-05-14T07:24:30;24.40;;;6.60;;
22565;SDS011;11449;51.330;19.378;2023-05-14T07:29:37;19.20;;;5.30;;
22565;SDS011;11449;51.330;19.378;2023-05-14T07:34:45;23.10;;;6.10;;
22565;SDS011;11449;51.330;19.378;2023-05-14T07:39:53;18.60;;;5.50;;
22565;SDS011;11449;51.330;19.378;2023-05-14T07:45:01;16.90;;;5.20;;
22565;SDS011;11449;51.330;19.378;2023-05-14T07:50:08;17.00;;;5.60;;
22565;SDS011;11449;51.330;19.378;2023-05-14T07:55:17;23.20;;;6.30;;
22565;SDS011;11449;51.330;19.378;2023-05-14T08:00:25;14.50;;;4.90;;
22565;SDS011;11449;51.330;19.378;2023-05-14T08:05:32;16.70;;;4.90;;
22565;SDS011;11449;51.330;19.378;2023-05-14T08:10:40;16.80;;;4.90;;
22565;SDS011;11449;51.330;19.378;2023-05-14T08:15:48;23.30;;;5.20;;
22565;SDS011;11449;51.330;19.378;2023-05-14T08:20:56;26.90;;;5.30;;
22565;SDS011;11449;51.330;19.378;2023-05-14T08:26:04;15.40;;;5.30;;
22565;SDS011;11449;51.330;19.378;2023-05-14T08:31:11;15.80;;;5.20;;
22565;SDS011;11449;51.330;19.378;2023-05-14T08:36:20;14.10;;;5.00;;
22565;SDS011;11449;51.330;19.378;2023-05-14T08:41:28;18.60;;;5.00;;
22565;SDS011;11449;51.330;19.378;2023-05-14T08:46:36;13.90;;;4.70;;
22565;SDS011;11449;51.330;19.378;2023-05-14T08:51:45;19.90;;;4.90;;
22565;SDS011;11449;51.330;19.378;2023-05-14T08:56:54;15.10;;;5.30;;
22565;SDS011;11449;51.330;19.378;2023-05-14T09:02:02;13.60;;;6.00;;
22565;SDS011;11449;51.330;19.378;2023-05-14T09:07:12;8.30;;;3.70;;
22565;SDS011;11449;51.330;19.378;2023-05-14T09:12:21;12.00;;;4.30;;
22565;SDS011;11449;51.330;19.378;2023-05-14T09:17:29;9.50;;;3.40;;
22565;SDS011;11449;51.330;19.378;2023-05-14T09:22:37;10.80;;;4.70;;
22565;SDS011;11449;51.330;19.378;2023-05-14T09:27:46;8.40;;;4.30;;
22565;SDS011;11449;51.330;19.378;2023-05-14T09:32:56;8.50;;;4.20;;
22565;SDS011;11449;51.330;19.378;2023-05-14T09:38:04;9.80;;;4.40;;
22565;SDS011;11449;51.330;19.378;2023-05-14T09:43:12;10.70;;;4.00;;
22565;SDS011;11449;51.330;19.378;2023-05-14T09:48:20;11.20;;;4.70;;
22565;SDS011;11449;51.330;19.378;2023-05-14T09:53:29;9.60;;;4.00;;
22565;SDS011;11449;51.330;19.378;2023-05-14T09:58:37;9.30;;;3.30;;
22565;SDS011;11449;51.330;19.378;2023-05-14T10:03:44;10.00;;;3.80;;
22565;SDS011;11449;51.330;19.378;2023-05-14T10:08:54;9.30;;;3.50;;
22565;SDS011;11449;51.330;19.378;2023-05-14T10:14:07;7.90;;;3.30;;
22565;SDS011;11449;51.330;19.378;2023-05-14T10:19:19;10.30;;;4.00;;
22565;SDS011;11449;51.330;19.378;2023-05-14T10:24:30;9.70;;;3.90;;
22565;SDS011;11449;51.330;19.378;2023-05-14T10:29:39;8.60;;;3.70;;
22565;SDS011;11449;51.330;19.378;2023-05-14T10:34:48;9.50;;;4.00;;
22565;SDS011;11449;51.330;19.378;2023-05-14T10:45:04;14.10;;;4.50;;
22565;SDS011;11449;51.330;19.378;2023-05-14T10:50:20;8.60;;;3.60;;
22565;SDS011;11449;51.330;19.378;2023-05-14T10:55:29;10.10;;;4.10;;
22565;SDS011;11449;51.330;19.378;2023-05-14T11:00:37;9.20;;;3.50;;
22565;SDS011;11449;51.330;19.378;2023-05-14T11:05:45;10.70;;;3.90;;
22565;SDS011;11449;51.330;19.378;2023-05-14T11:10:54;9.70;;;3.70;;
22565;SDS011;11449;51.330;19.378;2023-05-14T11:16:02;11.80;;;4.10;;
22565;SDS011;11449;51.330;19.378;2023-05-14T11:21:10;13.00;;;4.10;;
22565;SDS011;11449;51.330;19.378;2023-05-14T11:26:18;10.30;;;3.90;;
22565;SDS011;11449;51.330;19.378;2023-05-14T11:31:26;11.20;;;4.00;;
22565;SDS011;11449;51.330;19.378;2023-05-14T11:36:35;10.80;;;3.80;;
22565;SDS011;11449;51.330;19.378;2023-05-14T11:41:44;14.70;;;4.10;;
22565;SDS011;11449;51.330;19.378;2023-05-14T11:46:53;11.80;;;3.90;;
22565;SDS011;11449;51.330;19.378;2023-05-14T11:52:05;16.30;;;3.80;;
22565;SDS011;11449;51.330;19.378;2023-05-14T11:57:20;13.90;;;3.90;;
22565;SDS011;11449;51.330;19.378;2023-05-14T12:02:28;13.10;;;3.80;;
22565;SDS011;11449;51.330;19.378;2023-05-14T12:07:37;11.90;;;3.80;;
22565;SDS011;11449;51.330;19.378;2023-05-14T12:12:46;12.30;;;3.60;;
22565;SDS011;11449;51.330;19.378;2023-05-14T12:17:54;14.70;;;4.00;;
22565;SDS011;11449;51.330;19.378;2023-05-14T12:23:02;14.20;;;5.10;;
22565;SDS011;11449;51.330;19.378;2023-05-14T12:28:14;12.00;;;3.70;;
22565;SDS011;11449;51.330;19.378;2023-05-14T12:33:22;12.60;;;3.20;;
22565;SDS011;11449;51.330;19.378;2023-05-14T12:38:30;12.30;;;3.70;;
22565;SDS011;11449;51.330;19.378;2023-05-14T12:43:41;14.20;;;3.80;;
22565;SDS011;11449;51.330;19.378;2023-05-14T12:48:50;8.90;;;3.10;;
22565;SDS011;11449;51.330;19.378;2023-05-14T12:53:57;9.30;;;3.10;;
22565;SDS011;11449;51.330;19.378;2023-05-14T12:59:05;8.50;;;3.00;;
22565;SDS011;11449;51.330;19.378;2023-05-14T13:04:13;10.30;;;3.20;;
22565;SDS011;11449;51.330;19.378;2023-05-14T13:09:21;10.70;;;3.30;;
22565;SDS011;11449;51.330;19.378;2023-05-14T13:14:28;8.30;;;3.20;;
22565;SDS011;11449;51.330;19.378;2023-05-14T13:19:36;8.70;;;3.50;;
22565;SDS011;11449;51.330;19.378;2023-05-14T13:24:44;10.30;;;3.80;;
22565;SDS011;11449;51.330;19.378;2023-05-14T13:29:52;11.50;;;3.50;;
22565;SDS011;11449;51.330;19.378;2023-05-14T13:35:00;11.10;;;3.90;;
22565;SDS011;11449;51.330;19.378;2023-05-14T13:40:08;9.90;;;3.10;;
22565;SDS011;11449;51.330;19.378;2023-05-14T13:45:16;15.70;;;4.90;;
22565;SDS011;11449;51.330;19.378;2023-05-14T13:50:24;8.50;;;3.70;;
22565;SDS011;11449;51.330;19.378;2023-05-14T13:55:32;11.60;;;4.70;;
22565;SDS011;11449;51.330;19.378;2023-05-14T14:00:40;12.10;;;4.40;;
22565;SDS011;11449;51.330;19.378;2023-05-14T14:05:48;9.90;;;3.80;;
22565;SDS011;11449;51.330;19.378;2023-05-14T14:10:56;10.30;;;3.80;;
22565;SDS011;11449;51.330;19.378;2023-05-14T14:16:04;12.50;;;4.40;;
22565;SDS011;11449;51.330;19.378;2023-05-14T14:21:12;11.00;;;4.10;;
22565;SDS011;11449;51.330;19.378;2023-05-14T14:26:24;11.70;;;4.60;;
22565;SDS011;11449;51.330;19.378;2023-05-14T14:31:34;8.10;;;3.30;;
22565;SDS011;11449;51.330;19.378;2023-05-14T14:36:42;12.90;;;4.60;;
22565;SDS011;11449;51.330;19.378;2023-05-14T14:41:50;12.20;;;4.80;;
22565;SDS011;11449;51.330;19.378;2023-05-14T14:46:58;8.90;;;3.50;;
22565;SDS011;11449;51.330;19.378;2023-05-14T14:52:06;10.60;;;4.10;;
22565;SDS011;11449;51.330;19.378;2023-05-14T14:57:14;12.20;;;4.40;;
22565;SDS011;11449;51.330;19.378;2023-05-14T15:02:22;13.00;;;5.00;;
22565;SDS011;11449;51.330;19.378;2023-05-14T15:07:29;13.30;;;4.60;;
22565;SDS011;11449;51.330;19.378;2023-05-14T15:12:39;10.80;;;3.70;;
22565;SDS011;11449;51.330;19.378;2023-05-14T15:17:47;11.70;;;4.20;;
22565;SDS011;11449;51.330;19.378;2023-05-14T15:22:55;13.10;;;4.70;;
22565;SDS011;11449;51.330;19.378;2023-05-14T15:28:04;19.30;;;4.70;;
22565;SDS011;11449;51.330;19.378;2023-05-14T15:33:13;14.60;;;3.90;;
22565;SDS011;11449;51.330;19.378;2023-05-14T15:38:25;11.40;;;3.70;;
22565;SDS011;11449;51.330;19.378;2023-05-14T15:43:33;16.50;;;4.40;;
22565;SDS011;11449;51.330;19.378;2023-05-14T15:48:41;16.00;;;4.90;;
22565;SDS011;11449;51.330;19.378;2023-05-14T15:53:48;17.00;;;5.10;;
22565;SDS011;11449;51.330;19.378;2023-05-14T15:58:56;11.70;;;3.90;;
22565;SDS011;11449;51.330;19.378;2023-05-14T16:04:04;10.80;;;3.90;;
22565;SDS011;11449;51.330;19.378;2023-05-14T16:09:12;16.00;;;4.90;;
22565;SDS011;11449;51.330;19.378;2023-05-14T16:14:20;17.30;;;5.50;;
22565;SDS011;11449;51.330;19.378;2023-05-14T16:19:29;15.60;;;4.70;;
22565;SDS011;11449;51.330;19.378;2023-05-14T16:24:36;10.10;;;3.70;;
22565;SDS011;11449;51.330;19.378;2023-05-14T16:29:44;14.10;;;4.60;;
22565;SDS011;11449;51.330;19.378;2023-05-14T16:34:52;16.70;;;5.10;;
22565;SDS011;11449;51.330;19.378;2023-05-14T16:40:03;13.90;;;4.40;;
22565;SDS011;11449;51.330;19.378;2023-05-14T16:45:11;23.60;;;6.70;;
22565;SDS011;11449;51.330;19.378;2023-05-14T16:50:19;17.30;;;5.20;;
22565;SDS011;11449;51.330;19.378;2023-05-14T16:55:27;20.40;;;6.30;;
22565;SDS011;11449;51.330;19.378;2023-05-14T17:00:35;18.70;;;5.60;;
22565;SDS011;11449;51.330;19.378;2023-05-14T17:05:42;13.60;;;4.90;;
22565;SDS011;11449;51.330;19.378;2023-05-14T17:10:50;16.30;;;5.30;;
22565;SDS011;11449;51.330;19.378;2023-05-14T17:15:57;17.00;;;7.60;;
22565;SDS011;11449;51.330;19.378;2023-05-14T17:21:06;21.00;;;9.00;;
22565;SDS011;11449;51.330;19.378;2023-05-14T17:26:14;24.20;;;9.80;;
22565;SDS011;11449;51.330;19.378;2023-05-14T17:31:23;27.00;;;10.40;;
22565;SDS011;11449;51.330;19.378;2023-05-14T17:36:30;23.10;;;8.20;;
22565;SDS011;11449;51.330;19.378;2023-05-14T17:41:39;21.50;;;7.20;;
22565;SDS011;11449;51.330;19.378;2023-05-14T17:46:48;25.00;;;8.10;;
22565;SDS011;11449;51.330;19.378;2023-05-14T17:51:56;22.40;;;7.10;;
22565;SDS011;11449;51.330;19.378;2023-05-14T17:57:04;17.60;;;7.30;;
22565;SDS011;11449;51.330;19.378;2023-05-14T18:02:12;30.20;;;14.80;;
22565;SDS011;11449;51.330;19.378;2023-05-14T18:07:20;33.60;;;10.10;;
22565;SDS011;11449;51.330;19.378;2023-05-14T18:12:29;24.60;;;8.70;;
22565;SDS011;11449;51.330;19.378;2023-05-14T18:17:36;23.10;;;8.50;;
22565;SDS011;11449;51.330;19.378;2023-05-14T18:22:44;34.80;;;9.80;;
22565;SDS011;11449;51.330;19.378;2023-05-14T18:27:52;29.80;;;9.60;;
22565;SDS011;11449;51.330;19.378;2023-05-14T18:33:00;25.60;;;10.00;;
22565;SDS011;11449;51.330;19.378;2023-05-14T18:38:08;31.00;;;11.30;;
22565;SDS011;11449;51.330;19.378;2023-05-14T18:43:18;34.10;;;13.00;;
22565;SDS011;11449;51.330;19.378;2023-05-14T18:48:26;43.90;;;14.60;;
22565;SDS011;11449;51.330;19.378;2023-05-14T18:53:34;39.70;;;13.80;;
22565;SDS011;11449;51.330;19.378;2023-05-14T18:58:42;50.10;;;16.70;;
22565;SDS011;11449;51.330;19.378;2023-05-14T19:03:51;58.70;;;19.10;;
22565;SDS011;11449;51.330;19.378;2023-05-14T19:08:59;43.40;;;15.90;;
22565;SDS011;11449;51.330;19.378;2023-05-14T19:14:07;57.00;;;22.90;;
22565;SDS011;11449;51.330;19.378;2023-05-14T19:19:15;58.40;;;22.50;;
22565;SDS011;11449;51.330;19.378;2023-05-14T19:24:23;38.90;;;16.40;;
22565;SDS011;11449;51.330;19.378;2023-05-14T19:29:31;37.60;;;14.80;;
22565;SDS011;11449;51.330;19.378;2023-05-14T19:34:40;32.80;;;13.20;;
22565;SDS011;11449;51.330;19.378;2023-05-14T19:39:48;29.60;;;11.80;;
22565;SDS011;11449;51.330;19.378;2023-05-14T19:44:55;24.40;;;10.90;;
22565;SDS011;11449;51.330;19.378;2023-05-14T19:50:03;21.10;;;9.80;;
22565;SDS011;11449;51.330;19.378;2023-05-14T19:55:12;27.60;;;10.40;;
22565;SDS011;11449;51.330;19.378;2023-05-14T20:00:19;29.40;;;12.10;;
22565;SDS011;11449;51.330;19.378;2023-05-14T20:05:28;34.90;;;13.20;;
22565;SDS011;11449;51.330;19.378;2023-05-14T20:10:36;26.90;;;11.00;;
22565;SDS011;11449;51.330;19.378;2023-05-14T20:15:45;26.10;;;10.40;;
22565;SDS011;11449;51.330;19.378;2023-05-14T20:20:53;27.00;;;9.50;;
22565;SDS011;11449;51.330;19.378;2023-05-14T20:26:01;25.60;;;9.30;;
22565;SDS011;11449;51.330;19.378;2023-05-14T20:31:10;27.90;;;8.50;;
22565;SDS011;11449;51.330;19.378;2023-05-14T20:36:18;15.60;;;8.30;;
22565;SDS011;11449;51.330;19.378;2023-05-14T20:41:25;20.40;;;8.20;;
22565;SDS011;11449;51.330;19.378;2023-05-14T20:46:33;13.00;;;7.50;;
22565;SDS011;11449;51.330;19.378;2023-05-14T20:51:41;14.30;;;8.70;;
22565;SDS011;11449;51.330;19.378;2023-05-14T20:56:49;15.70;;;8.80;;
22565;SDS011;11449;51.330;19.378;2023-05-14T21:01:57;20.20;;;7.90;;
22565;SDS011;11449;51.330;19.378;2023-05-14T21:07:05;17.40;;;6.40;;
22565;SDS011;11449;51.330;19.378;2023-05-14T21:12:13;10.40;;;4.90;;
22565;SDS011;11449;51.330;19.378;2023-05-14T21:17:21;6.90;;;4.60;;
22565;SDS011;11449;51.330;19.378;2023-05-14T21:22:28;8.30;;;5.10;;
22565;SDS011;11449;51.330;19.378;2023-05-14T21:27:36;8.70;;;5.50;;
22565;SDS011;11449;51.330;19.378;2023-05-14T21:32:44;10.10;;;5.20;;
22565;SDS011;11449;51.330;19.378;2023-05-14T21:37:52;6.00;;;3.80;;
22565;SDS011;11449;51.330;19.378;2023-05-14T21:43:00;7.90;;;4.20;;
22565;SDS011;11449;51.330;19.378;2023-05-14T21:48:07;9.20;;;5.40;;
22565;SDS011;11449;51.330;19.378;2023-05-14T21:53:15;9.00;;;6.00;;
22565;SDS011;11449;51.330;19.378;2023-05-14T21:58:23;12.80;;;5.90;;
22565;SDS011;11449;51.330;19.378;2023-05-14T22:03:31;22.00;;;6.50;;
22565;SDS011;11449;51.330;19.378;2023-05-14T22:08:38;12.60;;;5.70;;
22565;SDS011;11449;51.330;19.378;2023-05-14T22:13:46;17.10;;;7.30;;
22565;SDS011;11449;51.330;19.378;2023-05-14T22:18:54;23.30;;;8.60;;
22565;SDS011;11449;51.330;19.378;2023-05-14T22:24:02;26.40;;;8.80;;
22565;SDS011;11449;51.330;19.378;2023-05-14T22:29:10;24.70;;;7.60;;
22565;SDS011;11449;51.330;19.378;2023-05-14T22:34:17;22.90;;;6.40;;
22565;SDS011;11449;51.330;19.378;2023-05-14T22:39:25;27.20;;;6.30;;
22565;SDS011;11449;51.330;19.378;2023-05-14T22:44:33;25.10;;;6.70;;
22565;SDS011;11449;51.330;19.378;2023-05-14T22:49:43;23.80;;;6.40;;
22565;SDS011;11449;51.330;19.378;2023-05-14T22:54:50;18.00;;;5.80;;
22565;SDS011;11449;51.330;19.378;2023-05-14T22:59:59;23.00;;;6.00;;
22565;SDS011;11449;51.330;19.378;2023-05-14T23:05:07;19.10;;;6.60;;
22565;SDS011;11449;51.330;19.378;2023-05-14T23:10:15;17.80;;;5.70;;
22565;SDS011;11449;51.330;19.378;2023-05-14T23:15:23;26.10;;;7.10;;
22565;SDS011;11449;51.330;19.378;2023-05-14T23:20:31;19.80;;;6.30;;
22565;SDS011;11449;51.330;19.378;2023-05-14T23:25:39;20.40;;;6.10;;
22565;SDS011;11449;51.330;19.378;2023-05-14T23:30:46;22.80;;;6.90;;
22565;SDS011;11449;51.330;19.378;2023-05-14T23:35:54;25.70;;;7.50;;
22565;SDS011;11449;51.330;19.378;2023-05-14T23:41:02;26.30;;;7.60;;
22565;SDS011;11449;51.330;19.378;2023-05-14T23:46:10;54.50;;;10.80;;
22565;SDS011;11449;51.330;19.378;2023-05-14T23:51:18;35.70;;;8.60;;
22565;SDS011;11449;51.330;19.378;2023-05-14T23:56:26;34.10;;;9.60;;
